Aviation Digital Data Service (ADDS)

Output produced by TAFs form (2028 UTC 24 July 2016)
found at http://aviationweather.gov/adds/tafs/
 
KTUS 241741Z 2418/2518 VRB04KT P6SM FEW100 BKN180 
     FM242100 32012G19KT P6SM VCSH SCT080 BKN150 
     FM250200 32009KT P6SM FEW090 SCT150 
     FM250700 17009KT P6SM SCT150